Time;durP1;ratioP1;P1;durP2;ratioP2;P2;SDS_P1;SDS_P2;PMS_P1;PMS_P2;Temp;Humidity;BMP_temperature;BMP_pressure;BME280_temperature;BME280_humidity;BME280_pressure;Samples;Min_cycle;Max_cycle;Signal;HPM_P1;HPM_P2
2023/02/23 00:01:50;;;;;;;25.75;6.38;;;4.30;90.40;;;;;;5003707;28;20472;-76
2023/02/23 00:04:17;;;;;;;36.25;6.88;;;4.30;90.20;;;;;;5009233;28;20140;-77
2023/02/23 00:06:44;;;;;;;26.27;6.65;;;4.40;89.80;;;;;;5024098;28;20076;-76
2023/02/23 00:09:14;;;;;;;34.30;7.05;;;4.40;89.90;;;;;;5027667;28;20530;-76
2023/02/23 00:11:41;;;;;;;36.63;7.68;;;4.30;89.90;;;;;;5025471;28;20053;-77
2023/02/23 00:14:08;;;;;;;24.10;6.90;;;4.40;89.70;;;;;;5022555;28;20092;-77
2023/02/23 00:16:36;;;;;;;26.08;5.93;;;4.40;89.40;;;;;;5006188;28;20050;-77
2023/02/23 00:19:06;;;;;;;35.42;7.22;;;4.30;89.60;;;;;;5007522;28;20049;-76
2023/02/23 00:21:33;;;;;;;33.30;6.35;;;4.30;89.70;;;;;;5025487;28;20045;-75
2023/02/23 00:24:07;;;;;;;35.75;8.20;;;4.40;89.40;;;;;;5009651;28;20056;-76
2023/02/23 00:26:36;;;;;;;25.98;6.18;;;4.40;89.70;;;;;;5015804;28;20041;-75
2023/02/23 00:29:06;;;;;;;22.60;6.93;;;4.30;89.60;;;;;;5016454;28;20482;-75
2023/02/23 00:31:33;;;;;;;25.35;6.25;;;4.30;89.50;;;;;;5012251;28;20122;-75
2023/02/23 00:34:02;;;;;;;28.80;6.43;;;4.30;89.50;;;;;;5006613;28;20045;-75
2023/02/23 00:36:32;;;;;;;29.02;7.32;;;4.30;89.50;;;;;;5031737;28;20041;-75
2023/02/23 00:39:09;;;;;;;24.33;5.97;;;4.30;89.50;;;;;;5007198;28;20049;-76
2023/02/23 00:41:36;;;;;;;29.90;7.07;;;4.30;89.40;;;;;;5020493;28;20132;-76
2023/02/23 00:44:03;;;;;;;29.27;6.97;;;4.30;89.20;;;;;;5025036;28;20058;-75
2023/02/23 00:46:30;;;;;;;30.00;7.07;;;4.30;89.30;;;;;;5025076;28;20051;-75
2023/02/23 00:48:58;;;;;;;32.72;7.15;;;4.30;89.40;;;;;;5011463;28;20053;-76
2023/02/23 00:51:29;;;;;;;32.80;6.93;;;4.20;89.30;;;;;;5024328;28;20048;-76
2023/02/23 00:53:58;;;;;;;32.03;6.68;;;4.20;89.40;;;;;;5022345;28;20138;-76
2023/02/23 00:56:26;;;;;;;32.00;7.53;;;4.20;89.50;;;;;;5004729;28;20049;-76
2023/02/23 00:58:53;;;;;;;32.78;7.85;;;4.20;89.70;;;;;;5025379;28;20140;-76
2023/02/23 01:01:21;;;;;;;22.52;7.28;;;4.20;89.70;;;;;;5006759;28;20490;-76
2023/02/23 01:03:48;;;;;;;31.00;7.35;;;4.20;89.70;;;;;;5023740;28;20103;-76
2023/02/23 01:06:16;;;;;;;30.15;8.68;;;4.20;89.60;;;;;;5027726;28;20053;-76
2023/02/23 01:08:49;;;;;;;33.00;7.68;;;4.20;89.70;;;;;;5006169;28;20053;-77
2023/02/23 01:11:22;;;;;;;35.22;7.93;;;4.20;89.70;;;;;;5003501;28;20060;-76
2023/02/23 01:13:52;;;;;;;38.40;7.93;;;4.20;89.80;;;;;;5024130;28;20056;-76
2023/02/23 01:16:26;;;;;;;21.92;7.10;;;4.20;90.00;;;;;;5006545;28;20422;-76
2023/02/23 01:19:00;;;;;;;34.42;8.35;;;4.20;90.00;;;;;;5024380;28;20053;-76
2023/02/23 01:21:34;;;;;;;29.17;7.63;;;4.20;89.90;;;;;;5025176;28;20045;-77
2023/02/23 01:24:02;;;;;;;29.45;8.60;;;4.20;90.00;;;;;;5006829;28;20045;-77
2023/02/23 01:26:34;;;;;;;21.75;7.78;;;4.10;90.10;;;;;;4998057;28;20321;-77
2023/02/23 01:29:07;;;;;;;31.58;8.50;;;4.20;90.10;;;;;;5006587;28;20069;-76
2023/02/23 01:31:35;;;;;;;27.08;7.72;;;4.10;90.20;;;;;;5006262;28;20050;-76
2023/02/23 01:34:03;;;;;;;29.92;8.85;;;4.20;90.10;;;;;;5005931;28;20045;-76
2023/02/23 01:36:33;;;;;;;34.60;8.82;;;4.20;90.10;;;;;;5017547;28;20049;-77
2023/02/23 01:39:00;;;;;;;30.88;8.80;;;4.20;90.20;;;;;;5004887;28;20073;-77
2023/02/23 01:41:31;;;;;;;31.83;9.10;;;4.20;90.20;;;;;;5023943;28;20427;-75
2023/02/23 01:44:06;;;;;;;43.33;9.98;;;4.20;90.00;;;;;;5006531;28;20081;-77
2023/02/23 01:46:37;;;;;;;36.10;9.07;;;4.20;90.00;;;;;;5020303;28;20061;-77
2023/02/23 01:49:14;;;;;;;44.83;9.65;;;4.20;89.90;;;;;;5025102;28;20198;-77
2023/02/23 01:52:01;;;;;;;37.45;9.27;;;4.20;90.00;;;;;;5002710;28;20628;-77
2023/02/23 01:54:35;;;;;;;29.75;9.20;;;4.20;90.00;;;;;;5022342;28;20057;-77
2023/02/23 01:57:03;;;;;;;43.08;9.75;;;4.30;90.00;;;;;;5019023;28;20567;-77
2023/02/23 01:59:37;;;;;;;35.78;8.27;;;4.20;90.20;;;;;;5003574;28;20049;-77
2023/02/23 02:02:04;;;;;;;31.08;9.10;;;4.30;90.40;;;;;;5002720;28;20061;-77
2023/02/23 02:04:43;;;;;;;31.20;9.38;;;4.30;90.40;;;;;;5005451;28;20046;-77
2023/02/23 02:07:30;;;;;;;35.67;10.05;;;4.30;90.90;;;;;;5005226;28;20133;-77
2023/02/23 02:12:43;;;;;;;42.63;10.38;;;4.30;90.00;;;;;;5018450;28;20049;-77
2023/02/23 02:15:15;;;;;;;42.83;11.13;;;4.30;90.10;;;;;;5024320;28;20045;-78
2023/02/23 02:17:50;;;;;;;29.83;10.10;;;4.30;90.00;;;;;;5023636;28;20061;-77
2023/02/23 02:20:54;;;;;;;46.35;11.70;;;4.30;90.20;;;;;;5020995;28;20049;-77
2023/02/23 02:24:07;;;;;;;32.70;10.48;;;4.30;89.90;;;;;;5023004;28;20057;-77
2023/02/23 02:26:55;;;;;;;37.78;10.45;;;4.30;89.80;;;;;;5016452;28;20049;-77
2023/02/23 02:29:35;;;;;;;28.55;10.77;;;4.30;89.60;;;;;;5022013;28;20061;-77
2023/02/23 02:32:09;;;;;;;31.83;9.63;;;4.30;90.10;;;;;;5005543;28;20061;-77
2023/02/23 02:35:15;;;;;;;29.85;11.07;;;4.20;90.40;;;;;;5023395;28;20130;-77
2023/02/23 02:37:55;;;;;;;33.35;10.73;;;4.20;90.10;;;;;;5017023;28;20120;-77
2023/02/23 02:41:02;;;;;;;49.10;10.27;;;4.20;90.30;;;;;;5000283;28;20166;-77
2023/02/23 02:43:35;;;;;;;37.75;11.57;;;4.20;90.50;;;;;;5003733;28;20056;-77
2023/02/23 02:46:05;;;;;;;32.00;11.18;;;4.20;90.90;;;;;;5023857;28;20053;-77
2023/02/23 02:48:41;;;;;;;42.70;10.35;;;4.10;91.00;;;;;;5003397;28;20077;-77
2023/02/23 02:51:16;;;;;;;39.63;11.93;;;4.10;90.80;;;;;;5026959;28;20057;-80
2023/02/23 02:53:53;;;;;;;46.38;12.77;;;4.10;90.80;;;;;;5023571;28;20394;-80
2023/02/23 02:56:24;;;;;;;40.50;12.18;;;4.10;90.60;;;;;;5027811;28;20046;-80
2023/02/23 02:58:52;;;;;;;43.50;13.23;;;4.20;90.70;;;;;;5029222;28;20037;-80
2023/02/23 04:17:59;;;;;;;35.95;13.50;;;3.90;91.50;;;;;;5025777;28;20057;-79
2023/02/23 04:20:26;;;;;;;37.85;12.52;;;3.90;91.60;;;;;;5008464;28;20049;-79
2023/02/23 04:22:53;;;;;;;33.85;12.52;;;3.90;91.30;;;;;;5025872;28;20054;-79
2023/02/23 04:25:23;;;;;;;39.75;12.75;;;3.90;91.60;;;;;;5009823;28;20077;-79
2023/02/23 04:27:50;;;;;;;38.05;12.45;;;3.90;91.10;;;;;;5009570;28;20067;-79
2023/02/23 04:30:19;;;;;;;46.92;11.82;;;3.90;91.30;;;;;;5027132;28;20529;-80
2023/02/23 04:32:46;;;;;;;42.47;13.07;;;3.90;91.00;;;;;;5027041;28;20057;-80
2023/02/23 04:35:13;;;;;;;42.38;14.30;;;3.90;90.80;;;;;;5009350;28;20151;-79
2023/02/23 04:37:40;;;;;;;34.45;12.80;;;3.90;90.90;;;;;;5008684;28;20045;-79
2023/02/23 04:40:07;;;;;;;37.22;12.98;;;3.90;91.00;;;;;;5004415;28;20161;-79
2023/02/23 04:42:34;;;;;;;40.35;13.20;;;3.90;90.80;;;;;;5007204;28;20391;-79
2023/02/23 04:45:01;;;;;;;34.78;12.63;;;3.90;91.00;;;;;;5028059;28;20406;-79
2023/02/23 04:47:28;;;;;;;47.65;13.77;;;3.90;90.80;;;;;;5000370;28;20056;-79
2023/02/23 04:49:55;;;;;;;39.03;13.32;;;3.90;90.90;;;;;;5026830;28;20164;-79
2023/02/23 04:52:22;;;;;;;52.58;12.80;;;3.90;91.00;;;;;;5026387;28;20051;-79
2023/02/23 04:54:49;;;;;;;45.58;14.88;;;3.90;91.00;;;;;;5026800;28;20041;-79
2023/02/23 04:57:16;;;;;;;41.00;13.25;;;3.90;90.90;;;;;;5026582;28;20572;-79
2023/02/23 04:59:43;;;;;;;41.65;13.32;;;3.90;90.70;;;;;;5012392;28;20056;-79
2023/02/23 05:02:10;;;;;;;42.30;13.50;;;3.90;91.00;;;;;;5005576;28;20125;-77
2023/02/23 05:04:37;;;;;;;44.97;14.07;;;3.80;91.00;;;;;;5007375;28;20652;-77
2023/02/23 05:07:04;;;;;;;40.85;13.05;;;3.80;91.00;;;;;;5024770;28;20064;-77
2023/02/23 05:09:32;;;;;;;44.17;13.60;;;3.80;91.30;;;;;;5024956;28;20049;-77
2023/02/23 05:11:59;;;;;;;47.63;14.43;;;3.80;91.00;;;;;;5007358;28;20054;-77
2023/02/23 05:14:26;;;;;;;47.85;13.40;;;3.80;91.10;;;;;;5006820;28;20046;-77
2023/02/23 05:16:53;;;;;;;41.90;14.32;;;3.80;91.00;;;;;;5024602;28;20057;-77
2023/02/23 05:19:19;;;;;;;47.95;13.20;;;3.80;91.10;;;;;;5027410;28;20056;-77
2023/02/23 05:21:46;;;;;;;38.50;13.68;;;3.80;91.40;;;;;;5025333;28;20409;-77
2023/02/23 05:24:14;;;;;;;48.10;13.25;;;3.70;91.30;;;;;;5007316;28;20049;-77
2023/02/23 05:26:41;;;;;;;55.33;14.30;;;3.70;91.50;;;;;;5007300;28;20054;-77
2023/02/23 05:29:08;;;;;;;46.08;13.68;;;3.70;91.50;;;;;;5006404;28;20056;-77
2023/02/23 05:31:35;;;;;;;45.65;15.18;;;3.70;91.60;;;;;;5007384;28;20061;-77
2023/02/23 05:34:02;;;;;;;34.78;11.70;;;3.60;91.40;;;;;;5027557;28;20085;-77
2023/02/23 05:36:28;;;;;;;43.90;13.13;;;3.60;91.60;;;;;;5002760;28;20454;-77
2023/02/23 05:38:55;;;;;;;48.22;15.05;;;3.50;91.70;;;;;;5010099;28;20045;-76
2023/02/23 05:41:23;;;;;;;40.88;13.25;;;3.40;92.00;;;;;;5010512;28;20405;-77
2023/02/23 05:43:51;;;;;;;39.17;13.55;;;3.40;92.20;;;;;;5008812;28;20049;-77
2023/02/23 05:46:23;;;;;;;54.65;15.43;;;3.40;92.40;;;;;;5009466;28;20049;-77
2023/02/23 05:48:59;;;;;;;47.08;14.02;;;3.30;92.70;;;;;;5008746;28;20046;-77
2023/02/23 05:51:28;;;;;;;42.10;12.90;;;3.40;92.60;;;;;;5026723;28;20759;-77
2023/02/23 05:53:55;;;;;;;45.08;13.45;;;3.30;92.70;;;;;;5005447;28;20046;-77
2023/02/23 05:56:22;;;;;;;45.15;13.55;;;3.30;92.90;;;;;;5011708;28;20132;-80
2023/02/23 05:58:51;;;;;;;44.33;13.38;;;3.30;93.00;;;;;;5029303;28;20053;-81
2023/02/23 06:01:19;;;;;;;50.55;14.02;;;3.30;93.00;;;;;;5008384;28;20050;-83
2023/02/23 06:03:47;;;;;;;42.58;15.00;;;3.30;92.80;;;;;;5029857;28;20072;-79
2023/02/23 06:06:14;;;;;;;38.22;13.60;;;3.30;93.00;;;;;;5012337;28;20057;-77
2023/02/23 06:08:41;;;;;;;45.08;13.48;;;3.30;92.90;;;;;;5027902;28;20061;-79
2023/02/23 06:11:08;;;;;;;45.03;15.52;;;3.30;93.00;;;;;;5028289;28;20140;-78
2023/02/23 06:13:35;;;;;;;46.88;14.23;;;3.30;93.10;;;;;;5027364;28;20042;-78
2023/02/23 06:16:03;;;;;;;39.53;14.48;;;3.40;93.00;;;;;;5016464;28;20100;-80
2023/02/23 06:18:30;;;;;;;52.45;14.85;;;3.40;93.00;;;;;;5030946;28;20126;-80
2023/02/23 06:21:02;;;;;;;53.45;15.80;;;3.40;92.90;;;;;;5015770;28;20060;-76
2023/02/23 06:23:30;;;;;;;54.63;16.58;;;3.40;92.90;;;;;;5010469;28;20431;-75
2023/02/23 06:25:58;;;;;;;41.95;14.13;;;3.40;93.00;;;;;;5027112;28;20052;-75
2023/02/23 06:28:26;;;;;;;49.67;14.07;;;3.50;92.70;;;;;;5009169;28;20509;-74
2023/02/23 06:30:54;;;;;;;40.95;14.60;;;3.50;92.80;;;;;;5009637;28;20057;-74
2023/02/23 06:33:21;;;;;;;47.25;14.32;;;3.50;92.80;;;;;;5025286;28;20072;-78
2023/02/23 06:35:48;;;;;;;58.10;15.02;;;3.50;92.90;;;;;;5013785;28;20045;-78
2023/02/23 06:38:15;;;;;;;46.88;15.93;;;3.50;93.00;;;;;;5013632;28;20053;-80
2023/02/23 06:40:42;;;;;;;51.30;14.95;;;3.60;92.90;;;;;;5024200;28;20045;-81
2023/02/23 06:43:10;;;;;;;55.40;14.52;;;3.60;93.00;;;;;;5020652;28;20051;-81
2023/02/23 06:45:36;;;;;;;42.63;13.63;;;3.60;93.00;;;;;;5025640;28;20172;-80
2023/02/23 06:48:04;;;;;;;44.10;14.80;;;3.70;93.20;;;;;;5006216;28;20049;-79
2023/02/23 06:50:31;;;;;;;43.92;15.00;;;3.70;92.60;;;;;;5025408;28;20048;-80
2023/02/23 06:52:57;;;;;;;44.78;14.30;;;3.70;92.80;;;;;;5006815;28;20453;-80
2023/02/23 06:55:24;;;;;;;52.42;13.65;;;3.70;92.80;;;;;;5026353;28;20049;-80
2023/02/23 06:57:53;;;;;;;50.75;14.55;;;3.80;92.40;;;;;;5026478;28;20122;-80
2023/02/23 07:00:20;;;;;;;44.10;16.15;;;3.80;92.50;;;;;;5016121;28;20049;-81
2023/02/23 07:02:47;;;;;;;47.55;14.30;;;3.80;92.40;;;;;;5025300;28;20409;-80
2023/02/23 07:05:15;;;;;;;47.95;14.15;;;3.90;92.40;;;;;;5008852;28;20057;-80
2023/02/23 07:07:42;;;;;;;39.47;14.05;;;3.90;92.20;;;;;;5026268;28;20738;-80
2023/02/23 07:10:10;;;;;;;43.65;14.20;;;3.90;92.20;;;;;;5026145;28;20057;-80
2023/02/23 07:12:37;;;;;;;43.88;13.52;;;4.00;91.80;;;;;;5027012;28;20057;-79
2023/02/23 07:15:05;;;;;;;51.90;15.98;;;4.00;91.50;;;;;;5026652;28;20060;-80
2023/02/23 07:17:31;;;;;;;44.60;14.60;;;4.00;91.50;;;;;;5025497;28;20152;-80
2023/02/23 07:19:58;;;;;;;42.10;14.48;;;4.10;91.90;;;;;;5021725;28;20092;-80
2023/02/23 07:22:29;;;;;;;50.38;14.35;;;4.10;91.70;;;;;;5007351;28;20049;-80
2023/02/23 07:24:56;;;;;;;48.67;14.75;;;4.20;91.60;;;;;;5026332;28;20426;-80
2023/02/23 07:27:23;;;;;;;41.03;13.57;;;4.20;91.40;;;;;;5021965;28;20053;-80
2023/02/23 07:29:50;;;;;;;38.65;14.98;;;4.20;91.10;;;;;;5021929;28;20059;-80
2023/02/23 07:32:17;;;;;;;35.45;13.68;;;4.30;91.00;;;;;;5003593;28;20051;-80
2023/02/23 07:34:46;;;;;;;50.88;15.25;;;4.30;91.10;;;;;;5004333;28;20084;-80
2023/02/23 07:37:13;;;;;;;40.13;14.82;;;4.30;90.40;;;;;;5021277;28;20124;-80
2023/02/23 07:39:40;;;;;;;42.20;14.63;;;4.40;91.00;;;;;;5023143;28;20053;-80
2023/02/23 07:42:07;;;;;;;50.75;15.07;;;4.40;90.90;;;;;;5023321;28;20140;-80
2023/02/23 07:44:33;;;;;;;41.70;14.48;;;4.50;90.80;;;;;;5005753;28;20246;-80
2023/02/23 07:47:00;;;;;;;39.35;14.93;;;4.50;90.70;;;;;;5024155;28;20049;-80
2023/02/23 07:49:27;;;;;;;54.63;14.38;;;4.50;90.40;;;;;;5024022;28;20152;-80
2023/02/23 07:51:54;;;;;;;47.13;14.40;;;4.60;90.60;;;;;;5004983;28;20060;-80
2023/02/23 07:54:21;;;;;;;44.22;13.65;;;4.60;90.50;;;;;;5022300;28;20049;-80
2023/02/23 07:56:48;;;;;;;49.92;14.68;;;4.60;90.10;;;;;;5024777;28;20061;-78
2023/02/23 07:59:15;;;;;;;48.33;13.45;;;4.70;89.90;;;;;;5011396;28;20049;-82
2023/02/23 08:01:42;;;;;;;42.40;14.90;;;4.70;89.60;;;;;;5012970;28;20684;-78
2023/02/23 08:04:10;;;;;;;43.42;15.02;;;4.70;89.90;;;;;;5028475;28;20049;-78
2023/02/23 08:06:37;;;;;;;41.13;15.43;;;4.70;89.90;;;;;;5031103;28;20061;-77
2023/02/23 08:09:04;;;;;;;43.90;14.93;;;4.70;89.70;;;;;;5009338;28;20057;-77
2023/02/23 08:11:31;;;;;;;48.55;14.95;;;4.70;89.90;;;;;;5015476;28;20064;-78
2023/02/23 08:13:58;;;;;;;48.92;14.25;;;4.70;90.00;;;;;;5008735;28;20537;-76
2023/02/23 08:16:30;;;;;;;43.15;14.80;;;4.80;89.60;;;;;;5009389;28;20080;-76
2023/02/23 08:18:58;;;;;;;54.45;15.55;;;4.80;89.20;;;;;;5008528;28;20126;-76
2023/02/23 08:21:26;;;;;;;46.15;15.23;;;4.90;89.80;;;;;;5008626;28;20574;-76
2023/02/23 08:23:54;;;;;;;50.05;16.38;;;4.90;89.10;;;;;;5029220;28;20055;-75
2023/02/23 08:26:22;;;;;;;56.15;14.93;;;4.80;89.30;;;;;;5025835;28;20463;-75
2023/02/23 08:28:50;;;;;;;57.25;15.68;;;4.90;89.70;;;;;;5007243;28;20056;-75
2023/02/23 08:31:19;;;;;;;48.13;15.30;;;4.90;90.00;;;;;;5025878;28;20174;-75
2023/02/23 08:33:47;;;;;;;41.45;14.70;;;5.00;89.80;;;;;;5024725;28;20045;-76
2023/02/23 08:36:14;;;;;;;45.10;16.08;;;5.10;89.70;;;;;;5007524;28;20387;-76
2023/02/23 08:38:40;;;;;;;52.22;15.48;;;5.20;89.20;;;;;;5024109;28;20056;-77
2023/02/23 08:41:07;;;;;;;46.70;15.02;;;5.30;89.50;;;;;;5028345;28;20056;-77
2023/02/23 08:43:34;;;;;;;56.10;16.92;;;5.30;88.90;;;;;;5006609;28;20081;-77
2023/02/23 08:46:01;;;;;;;41.60;15.25;;;5.40;88.80;;;;;;5028000;28;20059;-77
2023/02/23 08:48:28;;;;;;;52.20;15.40;;;5.50;89.20;;;;;;5005288;28;20115;-77
2023/02/23 08:50:56;;;;;;;51.30;15.27;;;5.50;88.60;;;;;;5024731;28;20045;-78
2023/02/23 08:53:24;;;;;;;52.53;16.23;;;5.60;87.90;;;;;;5024764;28;20494;-77
2023/02/23 08:55:57;;;;;;;45.17;15.98;;;5.60;87.80;;;;;;5019826;28;20045;-77
2023/02/23 08:58:24;;;;;;;48.72;15.95;;;5.70;88.10;;;;;;5008114;28;20055;-80
2023/02/23 09:00:51;;;;;;;46.30;15.98;;;5.80;89.10;;;;;;5007176;28;20053;-75
2023/02/23 09:03:19;;;;;;;57.60;18.13;;;6.00;88.30;;;;;;5013814;28;21033;-75
2023/02/23 09:05:46;;;;;;;49.38;16.00;;;6.10;88.10;;;;;;5024407;28;20517;-76
2023/02/23 09:08:13;;;;;;;49.35;16.17;;;6.20;87.10;;;;;;5023123;28;20142;-76
2023/02/23 09:10:42;;;;;;;53.58;16.70;;;6.10;86.50;;;;;;5010174;28;20525;-76
2023/02/23 09:13:10;;;;;;;56.47;17.00;;;6.20;86.50;;;;;;5024024;28;20053;-76
2023/02/23 09:15:39;;;;;;;57.75;17.58;;;6.20;87.00;;;;;;5006332;28;20045;-76
2023/02/23 09:18:07;;;;;;;49.90;15.98;;;6.20;87.10;;;;;;5030986;28;20045;-74
2023/02/23 09:20:34;;;;;;;74.20;18.17;;;6.20;86.80;;;;;;5005239;28;20050;-75
2023/02/23 09:23:01;;;;;;;67.25;19.08;;;6.20;87.20;;;;;;5006313;28;20045;-76
2023/02/23 09:25:28;;;;;;;58.88;17.13;;;6.20;87.10;;;;;;5026292;28;20057;-75
2023/02/23 09:27:55;;;;;;;75.35;19.40;;;6.20;86.80;;;;;;5023756;28;20098;-75
2023/02/23 09:30:22;;;;;;;75.28;19.38;;;6.20;87.30;;;;;;5025286;28;20053;-77
2023/02/23 09:32:50;;;;;;;88.05;19.58;;;6.20;87.50;;;;;;5005706;28;20511;-74
2023/02/23 09:35:19;;;;;;;58.70;17.20;;;6.20;87.50;;;;;;5006818;28;20060;-76
2023/02/23 09:37:48;;;;;;;65.57;18.00;;;6.20;87.60;;;;;;5022756;28;20506;-78
2023/02/23 09:40:29;;;;;;;61.38;18.58;;;6.20;87.80;;;;;;5028370;28;20050;-86
2023/02/23 09:43:00;;;;;;;55.13;18.42;;;6.10;87.70;;;;;;4997831;28;20056;-82
2023/02/23 09:45:51;;;;;;;60.00;20.00;;;6.20;88.30;;;;;;5018000;28;20053;-81
2023/02/23 09:48:22;;;;;;;60.35;19.00;;;6.20;87.70;;;;;;5026048;28;20052;-84
2023/02/23 09:50:55;;;;;;;60.38;18.35;;;6.20;88.10;;;;;;5009356;28;20175;-85
2023/02/23 09:53:31;;;;;;;63.15;20.05;;;6.10;88.10;;;;;;5009716;28;20795;-83
2023/02/23 09:56:02;;;;;;;62.05;19.20;;;6.10;88.50;;;;;;5018800;28;20053;-81
2023/02/23 09:58:32;;;;;;;71.20;18.52;;;6.10;89.10;;;;;;5009492;28;20602;-79
2023/02/23 10:01:10;;;;;;;72.38;19.52;;;6.20;89.00;;;;;;5026982;28;20041;-78
2023/02/23 10:03:53;;;;;;;68.75;21.08;;;6.40;88.80;;;;;;5024651;28;20175;-78
2023/02/23 10:06:21;;;;;;;74.40;19.35;;;6.50;89.20;;;;;;5020552;28;20052;-79
2023/02/23 10:09:26;;;;;;;68.57;20.23;;;6.60;88.50;;;;;;5020170;28;20490;-78
2023/02/23 10:12:03;;;;;;;73.03;20.83;;;6.60;88.40;;;;;;5022352;28;20049;-76
2023/02/23 10:14:51;;;;;;;80.40;20.80;;;6.80;88.30;;;;;;5021346;28;20057;-77
2023/02/23 10:17:37;;;;;;;82.95;22.38;;;6.80;89.00;;;;;;5019663;28;20049;-77
2023/02/23 10:20:28;;;;;;;71.82;20.95;;;6.80;88.40;;;;;;5020112;28;20481;-78
2023/02/23 10:23:00;;;;;;;63.60;20.83;;;6.90;88.60;;;;;;5021516;28;20486;-77
2023/02/23 10:25:30;;;;;;;74.25;20.92;;;6.90;88.40;;;;;;5019073;28;20540;-76
2023/02/23 10:27:59;;;;;;;87.70;22.20;;;7.00;88.60;;;;;;5007239;28;20142;-76
2023/02/23 10:30:32;;;;;;;72.80;20.83;;;7.00;88.30;;;;;;5013274;28;20049;-76
2023/02/23 10:33:24;;;;;;;68.78;22.08;;;7.00;88.20;;;;;;5025005;28;20136;-77
2023/02/23 10:35:59;;;;;;;61.65;20.77;;;7.20;88.20;;;;;;5012620;28;20063;-79
2023/02/23 10:38:39;;;;;;;77.10;20.95;;;7.20;88.40;;;;;;5025430;28;20157;-77
2023/02/23 10:41:07;;;;;;;63.63;20.70;;;7.30;89.20;;;;;;5026483;28;20140;-79
2023/02/23 10:43:34;;;;;;;77.10;22.35;;;7.30;88.70;;;;;;5022118;28;20060;-80
2023/02/23 10:46:03;;;;;;;66.50;21.40;;;7.30;87.90;;;;;;5026783;28;20122;-77
2023/02/23 10:48:49;;;;;;;60.42;19.75;;;7.30;87.80;;;;;;5025269;28;20045;-77
2023/02/23 10:51:27;;;;;;;74.07;20.65;;;7.40;87.20;;;;;;5026269;28;20065;-82
2023/02/23 10:53:55;;;;;;;63.83;20.30;;;7.40;87.90;;;;;;5008088;28;20107;-82
2023/02/23 10:56:22;;;;;;;76.95;22.10;;;7.30;87.80;;;;;;5008596;28;20528;-82
2023/02/23 10:58:57;;;;;;;73.65;22.50;;;7.30;87.40;;;;;;5009563;28;20521;-82
2023/02/23 11:01:37;;;;;;;70.77;21.53;;;7.40;88.50;;;;;;5008591;28;20045;-83
2023/02/23 11:04:33;;;;;;;79.82;22.08;;;7.40;88.20;;;;;;5011670;28;20324;-83
2023/02/23 11:07:06;;;;;;;66.10;21.50;;;7.40;88.20;;;;;;5027180;28;20051;-83
2023/02/23 11:09:34;;;;;;;69.72;20.90;;;7.50;88.20;;;;;;5008211;28;20056;-84
2023/02/23 11:12:21;;;;;;;80.85;19.45;;;7.60;88.20;;;;;;5008933;28;20041;-84
2023/02/23 11:14:52;;;;;;;68.97;19.73;;;7.70;87.90;;;;;;5007319;28;20048;-84
2023/02/23 11:17:27;;;;;;;59.53;19.38;;;7.80;87.40;;;;;;5007646;28;20546;-83
2023/02/23 11:20:14;;;;;;;83.72;21.38;;;7.80;87.40;;;;;;5001323;28;20231;-83
2023/02/23 11:22:41;;;;;;;55.55;19.20;;;7.80;87.90;;;;;;5021697;28;20406;-83
2023/02/23 11:25:17;;;;;;;71.03;19.98;;;7.90;86.80;;;;;;5025296;28;20057;-83
2023/02/23 11:27:50;;;;;;;55.83;19.30;;;8.00;86.60;;;;;;5002657;28;20183;-83
2023/02/23 11:30:21;;;;;;;56.45;18.25;;;7.90;86.40;;;;;;5000820;28;20061;-83
2023/02/23 11:32:54;;;;;;;57.45;19.10;;;7.90;86.80;;;;;;5006422;28;20060;-83
2023/02/23 11:35:21;;;;;;;64.00;20.23;;;7.80;86.90;;;;;;5033084;28;20477;-82
2023/02/23 11:37:48;;;;;;;64.68;20.08;;;7.80;87.00;;;;;;5024549;28;20062;-83
2023/02/23 11:40:25;;;;;;;67.95;20.92;;;7.80;87.00;;;;;;5022508;28;20050;-83
2023/02/23 11:42:53;;;;;;;65.35;20.58;;;7.90;86.80;;;;;;5021985;28;20136;-83
2023/02/23 11:45:23;;;;;;;66.22;20.98;;;8.00;87.20;;;;;;5027139;28;20414;-83
2023/02/23 11:47:53;;;;;;;60.90;21.67;;;8.10;87.40;;;;;;5009270;28;20060;-80
2023/02/23 11:50:26;;;;;;;67.53;20.30;;;8.20;86.60;;;;;;5021004;28;20061;-82
2023/02/23 11:53:05;;;;;;;70.10;22.20;;;8.20;86.00;;;;;;5027009;28;20054;-77
2023/02/23 11:55:35;;;;;;;58.15;20.25;;;8.30;86.30;;;;;;5010418;28;20498;-76
2023/02/23 11:58:31;;;;;;;61.42;20.90;;;8.40;85.40;;;;;;5028593;28;20060;-83
2023/02/23 12:01:11;;;;;;;60.25;20.52;;;8.40;85.10;;;;;;5013616;28;20052;-82
2023/02/23 12:03:43;;;;;;;65.85;20.70;;;8.40;85.50;;;;;;5011605;28;20088;-84
2023/02/23 12:06:10;;;;;;;52.90;20.00;;;8.50;85.40;;;;;;5030652;28;20134;-83
2023/02/23 12:08:47;;;;;;;69.75;21.27;;;8.60;84.80;;;;;;5009453;28;20061;-82
2023/02/23 12:11:22;;;;;;;63.17;20.67;;;8.70;84.30;;;;;;5029450;28;20049;-83
2023/02/23 12:14:30;;;;;;;63.40;21.20;;;8.80;84.20;;;;;;5030005;28;20059;-83
2023/02/23 12:17:13;;;;;;;62.35;20.08;;;8.90;85.20;;;;;;5000072;28;20057;-82
2023/02/23 12:19:45;;;;;;;64.13;20.08;;;8.80;83.20;;;;;;5027168;28;20072;-84
2023/02/23 12:22:21;;;;;;;53.20;20.13;;;8.80;83.80;;;;;;5015784;28;20505;-84
2023/02/23 12:24:56;;;;;;;69.72;20.58;;;8.90;84.00;;;;;;5005880;28;20058;-82
2023/02/23 12:27:41;;;;;;;70.70;21.02;;;8.90;84.00;;;;;;5011381;28;20044;-81
2023/02/23 12:30:17;;;;;;;66.32;20.27;;;8.90;84.30;;;;;;5013775;28;20312;-82
2023/02/23 12:32:46;;;;;;;52.30;19.60;;;9.00;84.10;;;;;;5020659;28;20049;-82
2023/02/23 12:35:49;;;;;;;67.85;20.05;;;9.10;83.60;;;;;;5007532;28;20049;-82
2023/02/23 12:38:38;;;;;;;51.10;19.63;;;8.90;84.20;;;;;;5026413;28;20041;-82
2023/02/23 12:41:14;;;;;;;68.68;20.52;;;8.80;84.40;;;;;;5024102;28;20049;-83
2023/02/23 12:43:50;;;;;;;62.58;20.55;;;8.80;84.50;;;;;;5009765;28;20128;-82
2023/02/23 12:46:21;;;;;;;58.05;19.70;;;8.70;84.60;;;;;;5026260;28;20136;-82
2023/02/23 12:48:59;;;;;;;64.20;20.20;;;8.70;84.70;;;;;;5020423;28;20081;-82
2023/02/23 12:52:07;;;;;;;66.07;20.50;;;8.60;84.90;;;;;;5008787;28;20045;-83
2023/02/23 12:54:35;;;;;;;53.75;18.30;;;8.60;85.40;;;;;;5015920;28;20049;-82
2023/02/23 12:57:13;;;;;;;62.38;19.85;;;8.50;86.00;;;;;;5007898;28;20071;-82
2023/02/23 12:59:52;;;;;;;61.17;19.50;;;8.40;86.50;;;;;;5008828;28;20053;-83
2023/02/23 13:02:48;;;;;;;58.33;19.13;;;8.40;86.40;;;;;;5026851;28;20044;-82
2023/02/23 13:05:33;;;;;;;50.67;18.75;;;8.30;86.80;;;;;;5008954;28;20141;-83
2023/02/23 13:08:24;;;;;;;57.50;20.08;;;8.30;87.00;;;;;;5008417;28;20132;-83
2023/02/23 13:11:26;;;;;;;61.20;20.90;;;8.20;87.30;;;;;;5025144;28;20056;-83
2023/02/23 13:14:12;;;;;;;64.75;20.52;;;8.20;87.50;;;;;;5008074;28;20060;-82
2023/02/23 13:16:49;;;;;;;61.45;19.88;;;8.10;88.20;;;;;;5018096;28;20045;-83
2023/02/23 13:19:34;;;;;;;55.88;18.90;;;8.10;88.40;;;;;;5021307;28;20056;-83
2023/02/23 13:22:22;;;;;;;58.83;19.25;;;8.00;88.70;;;;;;5025189;28;20045;-82
2023/02/23 13:24:52;;;;;;;64.80;18.75;;;8.00;88.90;;;;;;5025887;28;20461;-83
2023/02/23 13:27:39;;;;;;;60.53;19.67;;;8.00;89.80;;;;;;5027251;28;20064;-83
2023/02/23 13:30:10;;;;;;;61.53;18.85;;;7.90;90.00;;;;;;5012907;28;20049;-83
2023/02/23 13:32:38;;;;;;;62.35;19.55;;;7.90;90.00;;;;;;5018119;28;20426;-83
2023/02/23 13:35:12;;;;;;;63.50;19.00;;;7.90;90.30;;;;;;5009212;28;20049;-83
2023/02/23 13:37:50;;;;;;;64.20;20.70;;;7.90;90.50;;;;;;4999075;28;20102;-82
2023/02/23 13:40:23;;;;;;;71.97;20.40;;;7.90;90.80;;;;;;5023020;28;20048;-82
2023/02/23 13:43:12;;;;;;;75.88;21.48;;;7.80;91.60;;;;;;5011027;28;20050;-82
2023/02/23 13:46:16;;;;;;;70.95;20.42;;;7.80;92.80;;;;;;5018950;28;20057;-83
2023/02/23 13:49:07;;;;;;;67.13;20.00;;;7.80;93.70;;;;;;5007505;28;20060;-82
2023/02/23 13:51:41;;;;;;;70.57;20.25;;;7.70;95.10;;;;;;5022308;28;20049;-82
2023/02/23 13:54:15;;;;;;;72.90;22.58;;;7.70;95.50;;;;;;5006159;28;20533;-81
2023/02/23 13:56:51;;;;;;;79.22;21.92;;;7.60;96.20;;;;;;5028157;28;20164;-82
2023/02/23 13:59:51;;;;;;;80.63;21.52;;;7.50;97.00;;;;;;5010785;28;20140;-82
2023/02/23 14:02:22;;;;;;;70.90;21.52;;;7.50;97.80;;;;;;4976699;28;20458;-81
2023/02/23 14:04:49;;;;;;;96.18;22.08;;;7.40;98.40;;;;;;5023026;28;20410;-82
2023/02/23 14:07:25;;;;;;;78.75;22.42;;;7.40;98.90;;;;;;5025090;28;20582;-81
2023/02/23 14:10:02;;;;;;;75.13;21.45;;;7.40;99.60;;;;;;5006539;28;20056;-82
2023/02/23 14:12:38;;;;;;;83.88;22.67;;;7.40;99.80;;;;;;5004180;28;20563;-82
2023/02/23 14:15:34;;;;;;;67.65;20.30;;;7.30;100.00;;;;;;5015717;28;20044;-81
2023/02/23 14:18:17;;;;;;;84.38;21.33;;;7.30;100.00;;;;;;5020516;28;20381;-80
2023/02/23 14:21:18;;;;;;;87.60;22.33;;;7.30;100.00;;;;;;5038266;28;20045;-81
2023/02/23 14:24:24;;;;;;;85.53;22.25;;;7.30;100.00;;;;;;5002803;28;20056;-81
2023/02/23 14:27:06;;;;;;;85.38;21.08;;;7.30;100.00;;;;;;5017570;28;21339;-79